sensor_id;sensor_type;location;lat;lon;timestamp;temperature;humidity
13652;DHT22;6899;51.546;6.912;2023-07-20T00:01:00;15.70;99.90
13652;DHT22;6899;51.546;6.912;2023-07-20T00:03:27;15.70;99.90
13652;DHT22;6899;51.546;6.912;2023-07-20T00:05:54;15.80;99.90
13652;DHT22;6899;51.546;6.912;2023-07-20T00:08:20;15.80;99.90
13652;DHT22;6899;51.546;6.912;2023-07-20T00:10:48;15.80;99.90
13652;DHT22;6899;51.546;6.912;2023-07-20T00:13:15;15.90;99.90
13652;DHT22;6899;51.546;6.912;2023-07-20T00:15:45;15.90;99.90
13652;DHT22;6899;51.546;6.912;2023-07-20T00:18:15;15.90;99.90
13652;DHT22;6899;51.546;6.912;2023-07-20T00:20:42;15.90;99.90
13652;DHT22;6899;51.546;6.912;2023-07-20T00:23:08;15.90;99.90
13652;DHT22;6899;51.546;6.912;2023-07-20T00:25:35;15.90;99.90
13652;DHT22;6899;51.546;6.912;2023-07-20T00:28:04;15.80;99.90
13652;DHT22;6899;51.546;6.912;2023-07-20T00:30:30;15.90;99.90
13652;DHT22;6899;51.546;6.912;2023-07-20T00:32:57;15.90;99.90
13652;DHT22;6899;51.546;6.912;2023-07-20T00:35:24;15.90;99.90
13652;DHT22;6899;51.546;6.912;2023-07-20T00:37:51;15.90;99.90
13652;DHT22;6899;51.546;6.912;2023-07-20T00:40:18;15.90;99.90
13652;DHT22;6899;51.546;6.912;2023-07-20T00:42:45;15.80;99.90
13652;DHT22;6899;51.546;6.912;2023-07-20T00:45:13;15.70;99.90
13652;DHT22;6899;51.546;6.912;2023-07-20T00:47:40;15.70;99.90
13652;DHT22;6899;51.546;6.912;2023-07-20T00:50:09;15.70;99.90
13652;DHT22;6899;51.546;6.912;2023-07-20T00:52:37;15.80;99.90
13652;DHT22;6899;51.546;6.912;2023-07-20T00:55:07;15.80;99.90
13652;DHT22;6899;51.546;6.912;2023-07-20T00:57:34;15.90;99.90
13652;DHT22;6899;51.546;6.912;2023-07-20T01:00:00;15.90;99.90
13652;DHT22;6899;51.546;6.912;2023-07-20T01:02:29;16.00;99.90
13652;DHT22;6899;51.546;6.912;2023-07-20T01:04:56;16.00;99.90
13652;DHT22;6899;51.546;6.912;2023-07-20T01:07:26;16.00;99.90
13652;DHT22;6899;51.546;6.912;2023-07-20T01:10:01;15.90;99.90
13652;DHT22;6899;51.546;6.912;2023-07-20T01:12:32;15.90;99.90
13652;DHT22;6899;51.546;6.912;2023-07-20T01:15:03;16.00;99.90
13652;DHT22;6899;51.546;6.912;2023-07-20T01:17:34;16.00;99.90
13652;DHT22;6899;51.546;6.912;2023-07-20T01:20:01;15.90;99.90
13652;DHT22;6899;51.546;6.912;2023-07-20T01:22:46;15.70;99.90
13652;DHT22;6899;51.546;6.912;2023-07-20T01:25:31;15.60;99.90
13652;DHT22;6899;51.546;6.912;2023-07-20T01:28:35;15.40;99.90
13652;DHT22;6899;51.546;6.912;2023-07-20T01:31:26;15.20;99.90
13652;DHT22;6899;51.546;6.912;2023-07-20T01:33:56;15.20;99.90
13652;DHT22;6899;51.546;6.912;2023-07-20T01:36:25;15.20;99.90
13652;DHT22;6899;51.546;6.912;2023-07-20T01:38:53;15.20;99.90
13652;DHT22;6899;51.546;6.912;2023-07-20T01:41:21;15.10;99.90
13652;DHT22;6899;51.546;6.912;2023-07-20T01:43:48;15.20;99.90
13652;DHT22;6899;51.546;6.912;2023-07-20T01:46:14;15.30;99.90
13652;DHT22;6899;51.546;6.912;2023-07-20T01:48:43;15.40;99.90
13652;DHT22;6899;51.546;6.912;2023-07-20T01:51:10;15.40;99.90
13652;DHT22;6899;51.546;6.912;2023-07-20T01:53:37;15.50;99.90
13652;DHT22;6899;51.546;6.912;2023-07-20T01:56:04;15.50;99.90
13652;DHT22;6899;51.546;6.912;2023-07-20T01:58:31;15.60;99.90
13652;DHT22;6899;51.546;6.912;2023-07-20T02:00:57;15.50;99.90
13652;DHT22;6899;51.546;6.912;2023-07-20T02:03:24;15.50;99.90
13652;DHT22;6899;51.546;6.912;2023-07-20T02:05:53;15.60;99.90
13652;DHT22;6899;51.546;6.912;2023-07-20T02:08:20;15.70;99.90
13652;DHT22;6899;51.546;6.912;2023-07-20T02:10:47;15.70;99.90
13652;DHT22;6899;51.546;6.912;2023-07-20T02:13:14;15.70;99.90
13652;DHT22;6899;51.546;6.912;2023-07-20T02:15:41;15.60;99.90
13652;DHT22;6899;51.546;6.912;2023-07-20T02:18:08;15.50;99.90
13652;DHT22;6899;51.546;6.912;2023-07-20T02:20:35;15.50;99.90
13652;DHT22;6899;51.546;6.912;2023-07-20T02:23:03;15.40;99.90
13652;DHT22;6899;51.546;6.912;2023-07-20T02:25:30;15.40;99.90
13652;DHT22;6899;51.546;6.912;2023-07-20T02:27:57;15.30;99.90
13652;DHT22;6899;51.546;6.912;2023-07-20T02:30:24;15.30;99.90
13652;DHT22;6899;51.546;6.912;2023-07-20T02:32:50;15.30;99.90
13652;DHT22;6899;51.546;6.912;2023-07-20T02:35:17;15.30;99.90
13652;DHT22;6899;51.546;6.912;2023-07-20T02:37:44;15.20;99.90
13652;DHT22;6899;51.546;6.912;2023-07-20T02:40:12;15.20;99.90
13652;DHT22;6899;51.546;6.912;2023-07-20T02:42:39;15.10;99.90
13652;DHT22;6899;51.546;6.912;2023-07-20T02:45:07;15.10;99.90
13652;DHT22;6899;51.546;6.912;2023-07-20T02:47:34;15.10;99.90
13652;DHT22;6899;51.546;6.912;2023-07-20T02:50:00;15.00;99.90
13652;DHT22;6899;51.546;6.912;2023-07-20T02:52:27;15.10;99.90
13652;DHT22;6899;51.546;6.912;2023-07-20T02:54:55;15.00;99.90
13652;DHT22;6899;51.546;6.912;2023-07-20T02:57:23;15.00;99.90
13652;DHT22;6899;51.546;6.912;2023-07-20T02:59:50;15.00;99.90
13652;DHT22;6899;51.546;6.912;2023-07-20T03:02:17;15.00;99.90
13652;DHT22;6899;51.546;6.912;2023-07-20T03:04:43;15.00;99.90
13652;DHT22;6899;51.546;6.912;2023-07-20T03:07:10;15.00;99.90
13652;DHT22;6899;51.546;6.912;2023-07-20T03:09:37;14.90;99.90
13652;DHT22;6899;51.546;6.912;2023-07-20T03:12:06;14.90;99.90
13652;DHT22;6899;51.546;6.912;2023-07-20T03:14:34;14.80;99.90
13652;DHT22;6899;51.546;6.912;2023-07-20T03:17:01;14.70;99.90
13652;DHT22;6899;51.546;6.912;2023-07-20T03:19:28;14.80;99.90
13652;DHT22;6899;51.546;6.912;2023-07-20T03:21:54;14.80;99.90
13652;DHT22;6899;51.546;6.912;2023-07-20T03:24:21;14.80;99.90
13652;DHT22;6899;51.546;6.912;2023-07-20T03:26:49;14.80;99.90
13652;DHT22;6899;51.546;6.912;2023-07-20T03:29:15;14.70;99.90
13652;DHT22;6899;51.546;6.912;2023-07-20T03:31:44;14.70;99.90
13652;DHT22;6899;51.546;6.912;2023-07-20T03:34:10;14.70;99.90
13652;DHT22;6899;51.546;6.912;2023-07-20T03:36:37;14.70;99.90
13652;DHT22;6899;51.546;6.912;2023-07-20T03:39:04;14.70;99.90
13652;DHT22;6899;51.546;6.912;2023-07-20T03:41:31;14.80;99.90
13652;DHT22;6899;51.546;6.912;2023-07-20T03:43:57;14.90;99.90
13652;DHT22;6899;51.546;6.912;2023-07-20T03:46:24;14.90;99.90
13652;DHT22;6899;51.546;6.912;2023-07-20T03:48:52;14.90;99.90
13652;DHT22;6899;51.546;6.912;2023-07-20T03:51:19;15.00;99.90
13652;DHT22;6899;51.546;6.912;2023-07-20T03:53:46;15.00;99.90
13652;DHT22;6899;51.546;6.912;2023-07-20T03:56:13;15.00;99.90
13652;DHT22;6899;51.546;6.912;2023-07-20T03:58:39;14.90;99.90
13652;DHT22;6899;51.546;6.912;2023-07-20T04:01:06;14.90;99.90
13652;DHT22;6899;51.546;6.912;2023-07-20T04:03:33;14.90;99.90
13652;DHT22;6899;51.546;6.912;2023-07-20T04:06:02;14.90;99.90
13652;DHT22;6899;51.546;6.912;2023-07-20T04:08:29;14.90;99.90
13652;DHT22;6899;51.546;6.912;2023-07-20T04:10:56;14.80;99.90
13652;DHT22;6899;51.546;6.912;2023-07-20T04:13:23;14.80;99.90
13652;DHT22;6899;51.546;6.912;2023-07-20T04:15:49;14.80;99.90
13652;DHT22;6899;51.546;6.912;2023-07-20T04:18:16;14.80;99.90
13652;DHT22;6899;51.546;6.912;2023-07-20T04:20:43;14.70;99.90
13652;DHT22;6899;51.546;6.912;2023-07-20T04:23:11;14.70;99.90
13652;DHT22;6899;51.546;6.912;2023-07-20T04:25:39;14.60;99.90
13652;DHT22;6899;51.546;6.912;2023-07-20T04:28:06;14.60;99.90
13652;DHT22;6899;51.546;6.912;2023-07-20T04:30:35;14.60;99.90
13652;DHT22;6899;51.546;6.912;2023-07-20T04:33:02;14.60;99.90
13652;DHT22;6899;51.546;6.912;2023-07-20T04:35:46;14.60;99.90
13652;DHT22;6899;51.546;6.912;2023-07-20T04:38:14;14.70;99.90
13652;DHT22;6899;51.546;6.912;2023-07-20T04:40:43;14.90;99.90
13652;DHT22;6899;51.546;6.912;2023-07-20T04:43:10;15.10;99.90
13652;DHT22;6899;51.546;6.912;2023-07-20T04:45:37;15.40;99.90
13652;DHT22;6899;51.546;6.912;2023-07-20T04:48:06;15.50;99.90
13652;DHT22;6899;51.546;6.912;2023-07-20T04:50:33;15.40;99.90
13652;DHT22;6899;51.546;6.912;2023-07-20T04:53:00;15.30;99.90
13652;DHT22;6899;51.546;6.912;2023-07-20T04:55:28;15.40;99.90
13652;DHT22;6899;51.546;6.912;2023-07-20T04:57:55;15.40;99.90
13652;DHT22;6899;51.546;6.912;2023-07-20T05:00:22;15.50;99.90
13652;DHT22;6899;51.546;6.912;2023-07-20T05:02:49;15.50;99.90
13652;DHT22;6899;51.546;6.912;2023-07-20T05:05:16;15.60;99.90
13652;DHT22;6899;51.546;6.912;2023-07-20T05:07:43;15.50;99.90
13652;DHT22;6899;51.546;6.912;2023-07-20T05:10:10;15.50;99.90
13652;DHT22;6899;51.546;6.912;2023-07-20T05:12:39;15.50;99.90
13652;DHT22;6899;51.546;6.912;2023-07-20T05:15:06;15.40;99.90
13652;DHT22;6899;51.546;6.912;2023-07-20T05:17:33;15.30;99.90
13652;DHT22;6899;51.546;6.912;2023-07-20T05:20:00;15.30;99.90
13652;DHT22;6899;51.546;6.912;2023-07-20T05:22:27;15.30;99.90
13652;DHT22;6899;51.546;6.912;2023-07-20T05:24:53;15.30;99.90
13652;DHT22;6899;51.546;6.912;2023-07-20T05:27:20;15.40;99.90
13652;DHT22;6899;51.546;6.912;2023-07-20T05:29:49;15.40;99.90
13652;DHT22;6899;51.546;6.912;2023-07-20T05:32:16;15.60;99.90
13652;DHT22;6899;51.546;6.912;2023-07-20T05:34:43;15.70;99.90
13652;DHT22;6899;51.546;6.912;2023-07-20T05:37:09;15.70;99.90
13652;DHT22;6899;51.546;6.912;2023-07-20T05:39:36;15.70;99.90
13652;DHT22;6899;51.546;6.912;2023-07-20T05:42:03;15.80;99.90
13652;DHT22;6899;51.546;6.912;2023-07-20T05:44:30;15.90;99.90
13652;DHT22;6899;51.546;6.912;2023-07-20T05:46:58;16.20;99.90
13652;DHT22;6899;51.546;6.912;2023-07-20T05:49:25;16.30;99.90
13652;DHT22;6899;51.546;6.912;2023-07-20T05:51:52;16.60;99.90
13652;DHT22;6899;51.546;6.912;2023-07-20T05:54:18;16.80;99.90
13652;DHT22;6899;51.546;6.912;2023-07-20T05:56:46;17.50;99.90
13652;DHT22;6899;51.546;6.912;2023-07-20T05:59:13;18.30;99.90
13652;DHT22;6899;51.546;6.912;2023-07-20T06:01:40;19.30;99.90
13652;DHT22;6899;51.546;6.912;2023-07-20T06:04:08;20.30;99.90
13652;DHT22;6899;51.546;6.912;2023-07-20T06:06:35;21.30;99.90
13652;DHT22;6899;51.546;6.912;2023-07-20T06:09:02;21.60;99.90
13652;DHT22;6899;51.546;6.912;2023-07-20T06:11:30;22.00;99.90
13652;DHT22;6899;51.546;6.912;2023-07-20T06:13:57;22.90;99.90
13652;DHT22;6899;51.546;6.912;2023-07-20T06:16:24;23.70;99.90
13652;DHT22;6899;51.546;6.912;2023-07-20T06:18:51;24.80;99.90
13652;DHT22;6899;51.546;6.912;2023-07-20T06:21:19;25.40;99.90
13652;DHT22;6899;51.546;6.912;2023-07-20T06:23:46;24.60;99.90
13652;DHT22;6899;51.546;6.912;2023-07-20T06:26:13;22.80;99.90
13652;DHT22;6899;51.546;6.912;2023-07-20T06:28:39;21.70;99.90
13652;DHT22;6899;51.546;6.912;2023-07-20T06:31:06;20.90;99.90
13652;DHT22;6899;51.546;6.912;2023-07-20T06:33:33;21.00;99.90
13652;DHT22;6899;51.546;6.912;2023-07-20T06:36:00;22.10;99.90
13652;DHT22;6899;51.546;6.912;2023-07-20T06:38:29;23.30;99.90
13652;DHT22;6899;51.546;6.912;2023-07-20T06:40:55;24.40;99.90
13652;DHT22;6899;51.546;6.912;2023-07-20T06:43:22;26.00;99.90
13652;DHT22;6899;51.546;6.912;2023-07-20T06:45:52;27.00;97.50
13652;DHT22;6899;51.546;6.912;2023-07-20T06:48:19;27.70;94.40
13652;DHT22;6899;51.546;6.912;2023-07-20T06:50:46;27.90;91.40
13652;DHT22;6899;51.546;6.912;2023-07-20T06:53:13;27.90;90.40
13652;DHT22;6899;51.546;6.912;2023-07-20T06:55:42;27.60;92.30
13652;DHT22;6899;51.546;6.912;2023-07-20T06:58:09;28.20;92.10
13652;DHT22;6899;51.546;6.912;2023-07-20T07:00:35;28.20;82.70
13652;DHT22;6899;51.546;6.912;2023-07-20T07:03:02;28.30;85.60
13652;DHT22;6899;51.546;6.912;2023-07-20T07:05:29;29.10;81.50
13652;DHT22;6899;51.546;6.912;2023-07-20T07:07:56;29.70;88.30
13652;DHT22;6899;51.546;6.912;2023-07-20T07:10:23;30.30;87.40
13652;DHT22;6899;51.546;6.912;2023-07-20T07:12:51;29.70;81.90
13652;DHT22;6899;51.546;6.912;2023-07-20T07:15:18;29.10;87.80
13652;DHT22;6899;51.546;6.912;2023-07-20T07:17:45;29.50;90.50
13652;DHT22;6899;51.546;6.912;2023-07-20T07:20:12;29.20;81.90
13652;DHT22;6899;51.546;6.912;2023-07-20T07:22:39;28.10;82.30
13652;DHT22;6899;51.546;6.912;2023-07-20T07:25:10;27.40;90.70
13652;DHT22;6899;51.546;6.912;2023-07-20T07:27:36;26.50;90.90
13652;DHT22;6899;51.546;6.912;2023-07-20T07:30:06;27.10;92.40
13652;DHT22;6899;51.546;6.912;2023-07-20T07:32:33;26.20;94.50
13652;DHT22;6899;51.546;6.912;2023-07-20T07:35:00;25.70;95.10
13652;DHT22;6899;51.546;6.912;2023-07-20T07:37:27;24.80;99.10
13652;DHT22;6899;51.546;6.912;2023-07-20T07:39:54;24.20;97.70
13652;DHT22;6899;51.546;6.912;2023-07-20T07:42:21;23.60;99.90
13652;DHT22;6899;51.546;6.912;2023-07-20T07:44:48;24.20;99.90
13652;DHT22;6899;51.546;6.912;2023-07-20T07:47:16;24.80;99.90
13652;DHT22;6899;51.546;6.912;2023-07-20T07:49:43;24.80;98.90
13652;DHT22;6899;51.546;6.912;2023-07-20T07:52:09;24.80;97.80
13652;DHT22;6899;51.546;6.912;2023-07-20T07:54:36;23.90;98.10
13652;DHT22;6899;51.546;6.912;2023-07-20T07:57:03;23.00;99.90
13652;DHT22;6899;51.546;6.912;2023-07-20T07:59:30;23.10;99.90
13652;DHT22;6899;51.546;6.912;2023-07-20T08:02:02;24.30;99.90
13652;DHT22;6899;51.546;6.912;2023-07-20T08:04:30;24.80;97.90
13652;DHT22;6899;51.546;6.912;2023-07-20T08:06:58;25.60;96.60
13652;DHT22;6899;51.546;6.912;2023-07-20T08:09:25;26.10;95.50
13652;DHT22;6899;51.546;6.912;2023-07-20T08:11:52;26.50;92.00
13652;DHT22;6899;51.546;6.912;2023-07-20T08:14:19;26.60;93.20
13652;DHT22;6899;51.546;6.912;2023-07-20T08:16:46;26.50;87.60
13652;DHT22;6899;51.546;6.912;2023-07-20T08:19:13;26.00;89.50
13652;DHT22;6899;51.546;6.912;2023-07-20T08:21:41;26.10;90.40
13652;DHT22;6899;51.546;6.912;2023-07-20T08:24:08;25.60;85.00
13652;DHT22;6899;51.546;6.912;2023-07-20T08:26:35;26.10;87.20
13652;DHT22;6899;51.546;6.912;2023-07-20T08:29:02;26.20;87.70
13652;DHT22;6899;51.546;6.912;2023-07-20T08:31:29;26.80;82.60
13652;DHT22;6899;51.546;6.912;2023-07-20T08:33:55;27.20;83.80
13652;DHT22;6899;51.546;6.912;2023-07-20T08:36:23;27.50;88.50
13652;DHT22;6899;51.546;6.912;2023-07-20T08:38:51;27.60;84.80
13652;DHT22;6899;51.546;6.912;2023-07-20T08:41:18;28.30;78.40
13652;DHT22;6899;51.546;6.912;2023-07-20T08:43:46;28.70;77.60
13652;DHT22;6899;51.546;6.912;2023-07-20T08:46:14;28.70;78.80
13652;DHT22;6899;51.546;6.912;2023-07-20T08:48:43;27.60;73.70
13652;DHT22;6899;51.546;6.912;2023-07-20T08:51:11;27.30;76.20
13652;DHT22;6899;51.546;6.912;2023-07-20T08:53:39;26.80;74.10
13652;DHT22;6899;51.546;6.912;2023-07-20T08:56:08;26.20;75.10
13652;DHT22;6899;51.546;6.912;2023-07-20T08:58:36;26.50;71.30
13652;DHT22;6899;51.546;6.912;2023-07-20T09:01:04;26.40;75.60
13652;DHT22;6899;51.546;6.912;2023-07-20T09:03:31;26.30;80.50
13652;DHT22;6899;51.546;6.912;2023-07-20T09:05:58;26.60;77.70
13652;DHT22;6899;51.546;6.912;2023-07-20T09:08:25;28.10;83.00
13652;DHT22;6899;51.546;6.912;2023-07-20T09:10:52;30.20;72.20
13652;DHT22;6899;51.546;6.912;2023-07-20T09:13:20;30.50;64.70
13652;DHT22;6899;51.546;6.912;2023-07-20T09:15:53;29.60;63.70
13652;DHT22;6899;51.546;6.912;2023-07-20T09:18:27;28.70;68.60
13652;DHT22;6899;51.546;6.912;2023-07-20T09:20:58;27.40;72.90
13652;DHT22;6899;51.546;6.912;2023-07-20T09:23:30;26.00;73.50
13652;DHT22;6899;51.546;6.912;2023-07-20T09:25:58;25.10;87.40
13652;DHT22;6899;51.546;6.912;2023-07-20T09:28:26;24.80;90.10
13652;DHT22;6899;51.546;6.912;2023-07-20T09:30:55;24.80;85.30
13652;DHT22;6899;51.546;6.912;2023-07-20T09:33:23;25.60;89.60
13652;DHT22;6899;51.546;6.912;2023-07-20T09:35:50;26.50;86.60
13652;DHT22;6899;51.546;6.912;2023-07-20T09:38:16;26.80;74.90
13652;DHT22;6899;51.546;6.912;2023-07-20T09:40:43;27.30;75.80
13652;DHT22;6899;51.546;6.912;2023-07-20T09:43:10;27.70;70.20
13652;DHT22;6899;51.546;6.912;2023-07-20T09:45:41;28.20;72.70
13652;DHT22;6899;51.546;6.912;2023-07-20T09:48:10;27.30;65.60
13652;DHT22;6899;51.546;6.912;2023-07-20T09:50:40;27.10;69.30
13652;DHT22;6899;51.546;6.912;2023-07-20T09:53:11;26.70;72.80
13652;DHT22;6899;51.546;6.912;2023-07-20T09:55:39;26.90;74.60
13652;DHT22;6899;51.546;6.912;2023-07-20T09:58:07;27.20;67.10
13652;DHT22;6899;51.546;6.912;2023-07-20T10:00:35;27.60;74.80
13652;DHT22;6899;51.546;6.912;2023-07-20T10:03:04;28.10;72.10
13652;DHT22;6899;51.546;6.912;2023-07-20T10:05:33;28.70;63.60
13652;DHT22;6899;51.546;6.912;2023-07-20T10:08:03;28.90;63.80
13652;DHT22;6899;51.546;6.912;2023-07-20T10:10:33;28.90;63.70
13652;DHT22;6899;51.546;6.912;2023-07-20T10:13:01;29.10;67.30
13652;DHT22;6899;51.546;6.912;2023-07-20T10:15:32;28.50;63.40
13652;DHT22;6899;51.546;6.912;2023-07-20T10:18:06;28.00;68.00
13652;DHT22;6899;51.546;6.912;2023-07-20T10:20:36;27.50;64.60
13652;DHT22;6899;51.546;6.912;2023-07-20T10:23:04;26.90;69.00
13652;DHT22;6899;51.546;6.912;2023-07-20T10:25:31;26.90;68.80
13652;DHT22;6899;51.546;6.912;2023-07-20T10:28:04;26.60;65.10
13652;DHT22;6899;51.546;6.912;2023-07-20T10:30:32;26.10;66.00
13652;DHT22;6899;51.546;6.912;2023-07-20T10:33:00;25.70;61.80
13652;DHT22;6899;51.546;6.912;2023-07-20T10:35:29;25.80;65.10
13652;DHT22;6899;51.546;6.912;2023-07-20T10:38:01;25.90;63.40
13652;DHT22;6899;51.546;6.912;2023-07-20T10:40:31;26.30;72.70
13652;DHT22;6899;51.546;6.912;2023-07-20T10:43:03;26.90;62.60
13652;DHT22;6899;51.546;6.912;2023-07-20T10:45:34;27.40;66.80
13652;DHT22;6899;51.546;6.912;2023-07-20T10:48:05;27.50;63.30
13652;DHT22;6899;51.546;6.912;2023-07-20T10:50:33;27.60;64.40
13652;DHT22;6899;51.546;6.912;2023-07-20T10:53:14;27.40;63.30
13652;DHT22;6899;51.546;6.912;2023-07-20T10:55:41;27.20;64.80
13652;DHT22;6899;51.546;6.912;2023-07-20T10:58:10;27.50;66.50
13652;DHT22;6899;51.546;6.912;2023-07-20T11:00:38;27.60;60.40
13652;DHT22;6899;51.546;6.912;2023-07-20T11:03:27;28.00;61.80
13652;DHT22;6899;51.546;6.912;2023-07-20T11:05:57;27.90;61.70
13652;DHT22;6899;51.546;6.912;2023-07-20T11:08:38;28.40;61.20
13652;DHT22;6899;51.546;6.912;2023-07-20T11:11:22;28.60;60.10
13652;DHT22;6899;51.546;6.912;2023-07-20T11:13:57;28.80;66.90
13652;DHT22;6899;51.546;6.912;2023-07-20T11:16:41;29.00;59.20
13652;DHT22;6899;51.546;6.912;2023-07-20T11:19:16;29.10;62.70
13652;DHT22;6899;51.546;6.912;2023-07-20T11:21:46;27.90;54.40
13652;DHT22;6899;51.546;6.912;2023-07-20T11:24:13;28.20;60.10
13652;DHT22;6899;51.546;6.912;2023-07-20T11:26:41;28.90;58.00
13652;DHT22;6899;51.546;6.912;2023-07-20T11:29:08;29.10;55.80
13652;DHT22;6899;51.546;6.912;2023-07-20T11:31:38;28.80;56.10
13652;DHT22;6899;51.546;6.912;2023-07-20T11:34:05;28.80;52.90
13652;DHT22;6899;51.546;6.912;2023-07-20T11:36:33;29.30;53.10
13652;DHT22;6899;51.546;6.912;2023-07-20T11:39:02;29.00;52.80
13652;DHT22;6899;51.546;6.912;2023-07-20T11:41:30;29.00;53.50
13652;DHT22;6899;51.546;6.912;2023-07-20T11:43:57;28.60;53.50
13652;DHT22;6899;51.546;6.912;2023-07-20T11:46:24;27.90;55.20
13652;DHT22;6899;51.546;6.912;2023-07-20T11:48:56;26.90;53.90
13652;DHT22;6899;51.546;6.912;2023-07-20T11:51:24;25.50;57.40
13652;DHT22;6899;51.546;6.912;2023-07-20T11:53:51;25.70;64.90
13652;DHT22;6899;51.546;6.912;2023-07-20T11:56:19;26.00;63.00
13652;DHT22;6899;51.546;6.912;2023-07-20T11:58:46;26.60;61.50
13652;DHT22;6899;51.546;6.912;2023-07-20T12:01:13;26.70;63.40
13652;DHT22;6899;51.546;6.912;2023-07-20T12:03:42;27.00;61.60
13652;DHT22;6899;51.546;6.912;2023-07-20T12:06:09;27.20;56.70
13652;DHT22;6899;51.546;6.912;2023-07-20T12:08:38;27.30;54.80
13652;DHT22;6899;51.546;6.912;2023-07-20T12:11:06;27.00;59.50
13652;DHT22;6899;51.546;6.912;2023-07-20T12:13:38;26.90;54.20
13652;DHT22;6899;51.546;6.912;2023-07-20T12:16:13;26.70;56.20
13652;DHT22;6899;51.546;6.912;2023-07-20T12:18:40;26.80;57.80
13652;DHT22;6899;51.546;6.912;2023-07-20T12:21:07;27.30;59.30
13652;DHT22;6899;51.546;6.912;2023-07-20T12:23:35;27.00;59.40
13652;DHT22;6899;51.546;6.912;2023-07-20T12:26:06;26.90;61.70
13652;DHT22;6899;51.546;6.912;2023-07-20T12:28:33;27.00;59.00
13652;DHT22;6899;51.546;6.912;2023-07-20T12:31:01;27.50;53.90
13652;DHT22;6899;51.546;6.912;2023-07-20T12:33:28;27.90;50.50
13652;DHT22;6899;51.546;6.912;2023-07-20T12:35:55;28.40;51.70
13652;DHT22;6899;51.546;6.912;2023-07-20T12:38:24;28.80;52.20
13652;DHT22;6899;51.546;6.912;2023-07-20T12:40:51;29.00;53.20
13652;DHT22;6899;51.546;6.912;2023-07-20T12:43:17;29.60;52.90
13652;DHT22;6899;51.546;6.912;2023-07-20T12:45:45;29.10;52.50
13652;DHT22;6899;51.546;6.912;2023-07-20T12:48:13;28.40;52.50
13652;DHT22;6899;51.546;6.912;2023-07-20T12:50:39;27.50;54.20
13652;DHT22;6899;51.546;6.912;2023-07-20T12:53:07;26.80;55.70
13652;DHT22;6899;51.546;6.912;2023-07-20T12:55:34;26.70;54.40
13652;DHT22;6899;51.546;6.912;2023-07-20T12:58:01;26.40;56.30
13652;DHT22;6899;51.546;6.912;2023-07-20T13:00:28;27.00;56.10
13652;DHT22;6899;51.546;6.912;2023-07-20T13:02:55;27.80;56.20
13652;DHT22;6899;51.546;6.912;2023-07-20T13:05:23;29.00;54.50
13652;DHT22;6899;51.546;6.912;2023-07-20T13:07:50;30.40;51.80
13652;DHT22;6899;51.546;6.912;2023-07-20T13:10:17;30.10;46.80
13652;DHT22;6899;51.546;6.912;2023-07-20T13:12:45;29.60;51.40
13652;DHT22;6899;51.546;6.912;2023-07-20T13:15:11;28.90;48.70
13652;DHT22;6899;51.546;6.912;2023-07-20T13:17:39;28.30;51.40
13652;DHT22;6899;51.546;6.912;2023-07-20T13:20:08;27.70;54.50
13652;DHT22;6899;51.546;6.912;2023-07-20T13:22:37;27.70;54.50
13652;DHT22;6899;51.546;6.912;2023-07-20T13:25:05;27.60;51.80
13652;DHT22;6899;51.546;6.912;2023-07-20T13:27:32;27.00;52.10
13652;DHT22;6899;51.546;6.912;2023-07-20T13:29:59;26.40;54.40
13652;DHT22;6899;51.546;6.912;2023-07-20T13:32:27;26.10;53.70
13652;DHT22;6899;51.546;6.912;2023-07-20T13:34:53;25.90;55.70
13652;DHT22;6899;51.546;6.912;2023-07-20T13:37:20;26.50;60.90
13652;DHT22;6899;51.546;6.912;2023-07-20T13:39:48;27.70;54.30
13652;DHT22;6899;51.546;6.912;2023-07-20T13:42:15;28.00;50.60
13652;DHT22;6899;51.546;6.912;2023-07-20T13:44:42;29.00;50.10
13652;DHT22;6899;51.546;6.912;2023-07-20T13:47:09;28.70;47.70
13652;DHT22;6899;51.546;6.912;2023-07-20T13:49:36;28.40;53.50
13652;DHT22;6899;51.546;6.912;2023-07-20T13:52:04;28.10;53.00
13652;DHT22;6899;51.546;6.912;2023-07-20T13:54:31;28.00;55.10
13652;DHT22;6899;51.546;6.912;2023-07-20T13:56:59;28.00;56.10
13652;DHT22;6899;51.546;6.912;2023-07-20T13:59:26;28.80;56.60
13652;DHT22;6899;51.546;6.912;2023-07-20T14:01:52;29.60;50.60
13652;DHT22;6899;51.546;6.912;2023-07-20T14:04:19;29.40;50.60
13652;DHT22;6899;51.546;6.912;2023-07-20T14:06:46;29.30;50.50
13652;DHT22;6899;51.546;6.912;2023-07-20T14:09:13;28.50;50.60
13652;DHT22;6899;51.546;6.912;2023-07-20T14:11:39;28.30;51.80
13652;DHT22;6899;51.546;6.912;2023-07-20T14:14:08;29.40;53.90
13652;DHT22;6899;51.546;6.912;2023-07-20T14:16:34;29.40;46.50
13652;DHT22;6899;51.546;6.912;2023-07-20T14:19:01;28.60;50.00
13652;DHT22;6899;51.546;6.912;2023-07-20T14:21:30;28.30;52.00
13652;DHT22;6899;51.546;6.912;2023-07-20T14:23:57;28.00;54.50
13652;DHT22;6899;51.546;6.912;2023-07-20T14:26:24;27.90;53.40
13652;DHT22;6899;51.546;6.912;2023-07-20T14:28:51;27.80;55.00
13652;DHT22;6899;51.546;6.912;2023-07-20T14:31:19;27.80;53.60
13652;DHT22;6899;51.546;6.912;2023-07-20T14:33:46;27.50;55.70
13652;DHT22;6899;51.546;6.912;2023-07-20T14:36:13;27.70;56.30
13652;DHT22;6899;51.546;6.912;2023-07-20T14:38:40;27.20;55.30
13652;DHT22;6899;51.546;6.912;2023-07-20T14:41:07;27.30;56.70
13652;DHT22;6899;51.546;6.912;2023-07-20T14:43:33;27.30;52.60
13652;DHT22;6899;51.546;6.912;2023-07-20T14:46:00;27.70;53.40
13652;DHT22;6899;51.546;6.912;2023-07-20T14:48:29;27.70;50.10
13652;DHT22;6899;51.546;6.912;2023-07-20T14:50:55;27.50;51.20
13652;DHT22;6899;51.546;6.912;2023-07-20T14:53:22;28.10;53.00
13652;DHT22;6899;51.546;6.912;2023-07-20T14:55:49;29.10;52.00
13652;DHT22;6899;51.546;6.912;2023-07-20T14:58:16;29.60;48.20
13652;DHT22;6899;51.546;6.912;2023-07-20T15:00:43;28.50;49.10
13652;DHT22;6899;51.546;6.912;2023-07-20T15:03:10;28.90;51.90
13652;DHT22;6899;51.546;6.912;2023-07-20T15:05:38;29.40;48.70
13652;DHT22;6899;51.546;6.912;2023-07-20T15:08:05;29.50;48.80
13652;DHT22;6899;51.546;6.912;2023-07-20T15:10:34;29.80;50.50
13652;DHT22;6899;51.546;6.912;2023-07-20T15:13:01;29.00;46.80
13652;DHT22;6899;51.546;6.912;2023-07-20T15:15:28;28.40;50.60
13652;DHT22;6899;51.546;6.912;2023-07-20T15:17:55;28.00;53.00
13652;DHT22;6899;51.546;6.912;2023-07-20T15:20:22;27.10;54.90
13652;DHT22;6899;51.546;6.912;2023-07-20T15:22:50;27.40;57.30
13652;DHT22;6899;51.546;6.912;2023-07-20T15:25:17;27.50;56.50
13652;DHT22;6899;51.546;6.912;2023-07-20T15:27:43;27.70;55.20
13652;DHT22;6899;51.546;6.912;2023-07-20T15:30:11;28.30;53.40
13652;DHT22;6899;51.546;6.912;2023-07-20T15:32:38;28.60;55.60
13652;DHT22;6899;51.546;6.912;2023-07-20T15:35:06;27.90;51.10
13652;DHT22;6899;51.546;6.912;2023-07-20T15:37:33;27.40;52.40
13652;DHT22;6899;51.546;6.912;2023-07-20T15:40:02;27.40;56.30
13652;DHT22;6899;51.546;6.912;2023-07-20T15:42:31;28.30;57.10
13652;DHT22;6899;51.546;6.912;2023-07-20T15:44:58;28.70;52.40
13652;DHT22;6899;51.546;6.912;2023-07-20T15:47:25;28.70;53.00
13652;DHT22;6899;51.546;6.912;2023-07-20T15:49:52;28.50;54.40